sensor_id;sensor_type;location;lat;lon;timestamp;P1;durP1;ratioP1;P2;durP2;ratioP2
23676;SDS011;31493;49.058;12.190;2022-10-28T00:00:32;23.00;;;11.25;;
23676;SDS011;31493;49.058;12.190;2022-10-28T00:02:59;21.80;;;11.00;;
23676;SDS011;31493;49.058;12.190;2022-10-28T00:05:28;21.27;;;11.05;;
23676;SDS011;31493;49.058;12.190;2022-10-28T00:07:59;23.35;;;10.65;;
23676;SDS011;31493;49.058;12.190;2022-10-28T00:10:26;22.20;;;10.32;;
23676;SDS011;31493;49.058;12.190;2022-10-28T00:12:53;19.77;;;10.45;;
23676;SDS011;31493;49.058;12.190;2022-10-28T00:15:20;18.73;;;9.35;;
23676;SDS011;31493;49.058;12.190;2022-10-28T00:17:47;16.98;;;10.15;;
23676;SDS011;31493;49.058;12.190;2022-10-28T00:20:14;16.38;;;10.60;;
23676;SDS011;31493;49.058;12.190;2022-10-28T00:22:42;18.92;;;10.45;;
23676;SDS011;31493;49.058;12.190;2022-10-28T00:25:10;17.73;;;10.63;;
23676;SDS011;31493;49.058;12.190;2022-10-28T00:27:37;19.85;;;10.48;;
23676;SDS011;31493;49.058;12.190;2022-10-28T00:30:04;19.63;;;10.48;;
23676;SDS011;31493;49.058;12.190;2022-10-28T00:32:32;23.05;;;11.27;;
23676;SDS011;31493;49.058;12.190;2022-10-28T00:34:59;19.85;;;10.57;;
23676;SDS011;31493;49.058;12.190;2022-10-28T00:37:26;20.48;;;12.38;;
23676;SDS011;31493;49.058;12.190;2022-10-28T00:39:54;23.35;;;12.38;;
23676;SDS011;31493;49.058;12.190;2022-10-28T00:42:21;22.88;;;12.52;;
23676;SDS011;31493;49.058;12.190;2022-10-28T00:44:52;17.92;;;12.05;;
23676;SDS011;31493;49.058;12.190;2022-10-28T00:47:27;21.33;;;12.75;;
23676;SDS011;31493;49.058;12.190;2022-10-28T00:50:04;22.90;;;12.93;;
23676;SDS011;31493;49.058;12.190;2022-10-28T00:52:38;20.55;;;13.63;;
23676;SDS011;31493;49.058;12.190;2022-10-28T00:55:08;24.27;;;13.75;;
23676;SDS011;31493;49.058;12.190;2022-10-28T00:57:36;23.42;;;13.82;;
23676;SDS011;31493;49.058;12.190;2022-10-28T01:00:05;21.83;;;13.85;;
23676;SDS011;31493;49.058;12.190;2022-10-28T01:05:05;21.95;;;11.90;;
23676;SDS011;31493;49.058;12.190;2022-10-28T01:07:32;19.77;;;12.50;;
23676;SDS011;31493;49.058;12.190;2022-10-28T01:10:00;22.60;;;12.65;;
23676;SDS011;31493;49.058;12.190;2022-10-28T01:12:29;21.95;;;12.30;;
23676;SDS011;31493;49.058;12.190;2022-10-28T01:15:03;22.67;;;12.13;;
23676;SDS011;31493;49.058;12.190;2022-10-28T01:17:39;24.98;;;13.40;;
23676;SDS011;31493;49.058;12.190;2022-10-28T01:20:43;20.63;;;12.40;;
23676;SDS011;31493;49.058;12.190;2022-10-28T01:23:33;22.80;;;13.18;;
23676;SDS011;31493;49.058;12.190;2022-10-28T01:26:21;24.58;;;12.93;;
23676;SDS011;31493;49.058;12.190;2022-10-28T01:29:17;23.35;;;13.40;;
23676;SDS011;31493;49.058;12.190;2022-10-28T01:32:01;24.92;;;13.35;;
23676;SDS011;31493;49.058;12.190;2022-10-28T01:34:37;23.35;;;14.07;;
23676;SDS011;31493;49.058;12.190;2022-10-28T01:37:16;24.77;;;13.57;;
23676;SDS011;31493;49.058;12.190;2022-10-28T01:39:53;27.98;;;13.77;;
23676;SDS011;31493;49.058;12.190;2022-10-28T01:42:28;27.02;;;13.90;;
23676;SDS011;31493;49.058;12.190;2022-10-28T01:45:00;24.55;;;13.45;;
23676;SDS011;31493;49.058;12.190;2022-10-28T01:47:36;27.67;;;14.52;;
23676;SDS011;31493;49.058;12.190;2022-10-28T01:50:12;27.05;;;13.15;;
23676;SDS011;31493;49.058;12.190;2022-10-28T01:52:44;24.55;;;13.98;;
23676;SDS011;31493;49.058;12.190;2022-10-28T01:55:14;24.38;;;15.68;;
23676;SDS011;31493;49.058;12.190;2022-10-28T01:57:44;31.38;;;15.90;;
23676;SDS011;31493;49.058;12.190;2022-10-28T02:00:15;29.77;;;16.15;;
23676;SDS011;31493;49.058;12.190;2022-10-28T02:02:43;29.42;;;16.95;;
23676;SDS011;31493;49.058;12.190;2022-10-28T02:05:34;29.67;;;17.23;;
23676;SDS011;31493;49.058;12.190;2022-10-28T02:08:05;27.48;;;17.92;;
23676;SDS011;31493;49.058;12.190;2022-10-28T02:10:54;27.88;;;17.38;;
23676;SDS011;31493;49.058;12.190;2022-10-28T02:13:31;34.20;;;17.15;;
23676;SDS011;31493;49.058;12.190;2022-10-28T02:16:06;32.75;;;17.85;;
23676;SDS011;31493;49.058;12.190;2022-10-28T02:18:42;29.58;;;18.55;;
23676;SDS011;31493;49.058;12.190;2022-10-28T02:21:17;28.10;;;18.90;;
23676;SDS011;31493;49.058;12.190;2022-10-28T02:23:51;37.03;;;20.55;;
23676;SDS011;31493;49.058;12.190;2022-10-28T02:26:23;31.52;;;20.95;;
23676;SDS011;31493;49.058;12.190;2022-10-28T02:29:00;35.83;;;21.63;;
23676;SDS011;31493;49.058;12.190;2022-10-28T02:31:34;36.20;;;23.15;;
23676;SDS011;31493;49.058;12.190;2022-10-28T02:34:08;37.50;;;23.70;;
23676;SDS011;31493;49.058;12.190;2022-10-28T02:36:39;34.63;;;21.70;;
23676;SDS011;31493;49.058;12.190;2022-10-28T02:39:09;39.55;;;24.30;;
23676;SDS011;31493;49.058;12.190;2022-10-28T02:41:37;38.53;;;23.08;;
23676;SDS011;31493;49.058;12.190;2022-10-28T02:44:09;38.28;;;21.15;;
23676;SDS011;31493;49.058;12.190;2022-10-28T02:46:42;38.72;;;24.45;;
23676;SDS011;31493;49.058;12.190;2022-10-28T02:49:13;35.15;;;23.85;;
23676;SDS011;31493;49.058;12.190;2022-10-28T02:51:41;40.10;;;23.85;;
23676;SDS011;31493;49.058;12.190;2022-10-28T02:54:11;34.85;;;22.27;;
23676;SDS011;31493;49.058;12.190;2022-10-28T02:56:42;33.83;;;22.58;;
23676;SDS011;31493;49.058;12.190;2022-10-28T02:59:14;35.28;;;20.95;;
23676;SDS011;31493;49.058;12.190;2022-10-28T03:01:41;42.15;;;22.95;;
23676;SDS011;31493;49.058;12.190;2022-10-28T03:04:08;37.50;;;22.48;;
23676;SDS011;31493;49.058;12.190;2022-10-28T03:06:37;33.55;;;22.33;;
23676;SDS011;31493;49.058;12.190;2022-10-28T03:09:04;40.58;;;22.75;;
23676;SDS011;31493;49.058;12.190;2022-10-28T03:11:31;42.83;;;23.45;;
23676;SDS011;31493;49.058;12.190;2022-10-28T03:13:58;33.25;;;20.60;;
23676;SDS011;31493;49.058;12.190;2022-10-28T03:16:25;38.50;;;23.13;;
23676;SDS011;31493;49.058;12.190;2022-10-28T03:18:52;42.60;;;23.67;;
23676;SDS011;31493;49.058;12.190;2022-10-28T03:21:19;34.63;;;21.67;;
23676;SDS011;31493;49.058;12.190;2022-10-28T03:23:48;37.30;;;22.15;;
23676;SDS011;31493;49.058;12.190;2022-10-28T03:26:15;41.80;;;21.88;;
23676;SDS011;31493;49.058;12.190;2022-10-28T03:28:42;39.38;;;24.15;;
23676;SDS011;31493;49.058;12.190;2022-10-28T03:31:09;37.83;;;22.27;;
23676;SDS011;31493;49.058;12.190;2022-10-28T03:33:36;37.28;;;21.90;;
23676;SDS011;31493;49.058;12.190;2022-10-28T03:36:03;37.72;;;21.65;;
23676;SDS011;31493;49.058;12.190;2022-10-28T03:38:30;35.55;;;22.67;;
23676;SDS011;31493;49.058;12.190;2022-10-28T03:40:59;34.00;;;21.05;;
23676;SDS011;31493;49.058;12.190;2022-10-28T03:43:26;31.63;;;20.27;;
23676;SDS011;31493;49.058;12.190;2022-10-28T03:45:53;34.13;;;20.85;;
23676;SDS011;31493;49.058;12.190;2022-10-28T03:48:20;30.13;;;20.33;;
23676;SDS011;31493;49.058;12.190;2022-10-28T03:50:50;32.85;;;19.27;;
23676;SDS011;31493;49.058;12.190;2022-10-28T03:53:18;34.38;;;18.52;;
23676;SDS011;31493;49.058;12.190;2022-10-28T03:55:50;27.88;;;17.08;;
23676;SDS011;31493;49.058;12.190;2022-10-28T03:58:19;39.10;;;17.55;;
23676;SDS011;31493;49.058;12.190;2022-10-28T04:00:46;28.15;;;16.75;;
23676;SDS011;31493;49.058;12.190;2022-10-28T04:03:13;27.25;;;16.52;;
23676;SDS011;31493;49.058;12.190;2022-10-28T04:05:40;28.48;;;17.10;;
23676;SDS011;31493;49.058;12.190;2022-10-28T04:08:08;24.25;;;16.65;;
23676;SDS011;31493;49.058;12.190;2022-10-28T04:10:35;28.17;;;15.82;;
23676;SDS011;31493;49.058;12.190;2022-10-28T04:13:03;25.20;;;15.25;;
23676;SDS011;31493;49.058;12.190;2022-10-28T04:15:32;29.05;;;15.80;;
23676;SDS011;31493;49.058;12.190;2022-10-28T04:17:59;24.88;;;16.67;;
23676;SDS011;31493;49.058;12.190;2022-10-28T04:20:27;24.58;;;15.88;;
23676;SDS011;31493;49.058;12.190;2022-10-28T04:22:55;31.55;;;16.15;;
23676;SDS011;31493;49.058;12.190;2022-10-28T04:25:22;23.65;;;15.63;;
23676;SDS011;31493;49.058;12.190;2022-10-28T04:27:50;30.10;;;16.67;;
23676;SDS011;31493;49.058;12.190;2022-10-28T04:30:17;27.58;;;16.80;;
23676;SDS011;31493;49.058;12.190;2022-10-28T04:32:46;23.83;;;16.98;;
23676;SDS011;31493;49.058;12.190;2022-10-28T04:35:13;34.35;;;17.38;;
23676;SDS011;31493;49.058;12.190;2022-10-28T04:37:40;29.02;;;18.25;;
23676;SDS011;31493;49.058;12.190;2022-10-28T04:40:07;31.15;;;18.27;;
23676;SDS011;31493;49.058;12.190;2022-10-28T04:42:35;32.65;;;20.88;;
23676;SDS011;31493;49.058;12.190;2022-10-28T04:45:02;35.15;;;23.05;;
23676;SDS011;31493;49.058;12.190;2022-10-28T04:47:29;27.20;;;18.63;;
23676;SDS011;31493;49.058;12.190;2022-10-28T04:49:57;29.77;;;19.88;;
23676;SDS011;31493;49.058;12.190;2022-10-28T04:52:24;30.98;;;21.60;;
23676;SDS011;31493;49.058;12.190;2022-10-28T04:54:51;41.25;;;21.38;;
23676;SDS011;31493;49.058;12.190;2022-10-28T04:57:18;40.42;;;22.63;;
23676;SDS011;31493;49.058;12.190;2022-10-28T04:59:45;36.25;;;22.15;;
23676;SDS011;31493;49.058;12.190;2022-10-28T05:02:12;40.63;;;23.08;;
23676;SDS011;31493;49.058;12.190;2022-10-28T05:04:39;36.65;;;22.33;;
23676;SDS011;31493;49.058;12.190;2022-10-28T05:07:08;32.03;;;22.42;;
23676;SDS011;31493;49.058;12.190;2022-10-28T05:09:35;38.33;;;23.67;;
23676;SDS011;31493;49.058;12.190;2022-10-28T05:12:02;37.50;;;22.45;;
23676;SDS011;31493;49.058;12.190;2022-10-28T05:14:29;32.10;;;23.05;;
23676;SDS011;31493;49.058;12.190;2022-10-28T05:16:56;37.85;;;23.42;;
23676;SDS011;31493;49.058;12.190;2022-10-28T05:19:23;47.72;;;23.10;;
23676;SDS011;31493;49.058;12.190;2022-10-28T05:21:50;41.63;;;23.13;;
23676;SDS011;31493;49.058;12.190;2022-10-28T05:24:18;37.22;;;21.73;;
23676;SDS011;31493;49.058;12.190;2022-10-28T05:26:45;44.15;;;25.63;;
23676;SDS011;31493;49.058;12.190;2022-10-28T05:29:12;40.47;;;26.15;;
23676;SDS011;31493;49.058;12.190;2022-10-28T05:31:39;47.40;;;25.73;;
23676;SDS011;31493;49.058;12.190;2022-10-28T05:34:06;37.85;;;25.48;;
23676;SDS011;31493;49.058;12.190;2022-10-28T05:36:33;43.83;;;28.15;;
23676;SDS011;31493;49.058;12.190;2022-10-28T05:39:00;48.80;;;28.35;;
23676;SDS011;31493;49.058;12.190;2022-10-28T05:41:29;44.00;;;27.73;;
23676;SDS011;31493;49.058;12.190;2022-10-28T05:43:56;52.20;;;29.83;;
23676;SDS011;31493;49.058;12.190;2022-10-28T05:46:23;43.83;;;28.17;;
23676;SDS011;31493;49.058;12.190;2022-10-28T05:48:50;44.63;;;29.15;;
23676;SDS011;31493;49.058;12.190;2022-10-28T05:51:17;36.95;;;25.77;;
23676;SDS011;31493;49.058;12.190;2022-10-28T05:53:44;43.97;;;28.33;;
23676;SDS011;31493;49.058;12.190;2022-10-28T05:56:11;48.40;;;28.65;;
23676;SDS011;31493;49.058;12.190;2022-10-28T05:58:39;43.08;;;29.25;;
23676;SDS011;31493;49.058;12.190;2022-10-28T06:01:06;38.80;;;26.95;;
23676;SDS011;31493;49.058;12.190;2022-10-28T06:03:34;44.97;;;29.33;;
23676;SDS011;31493;49.058;12.190;2022-10-28T06:06:01;48.97;;;29.00;;
23676;SDS011;31493;49.058;12.190;2022-10-28T06:08:28;43.10;;;29.33;;
23676;SDS011;31493;49.058;12.190;2022-10-28T06:10:55;41.63;;;27.30;;
23676;SDS011;31493;49.058;12.190;2022-10-28T06:13:22;44.28;;;27.58;;
23676;SDS011;31493;49.058;12.190;2022-10-28T06:15:51;40.28;;;26.60;;
23676;SDS011;31493;49.058;12.190;2022-10-28T06:18:19;44.70;;;26.50;;
23676;SDS011;31493;49.058;12.190;2022-10-28T06:20:49;36.85;;;25.88;;
23676;SDS011;31493;49.058;12.190;2022-10-28T06:23:17;39.63;;;26.27;;
23676;SDS011;31493;49.058;12.190;2022-10-28T06:25:44;43.67;;;25.88;;
23676;SDS011;31493;49.058;12.190;2022-10-28T06:28:11;41.50;;;25.40;;
23676;SDS011;31493;49.058;12.190;2022-10-28T06:30:38;36.00;;;24.30;;
23676;SDS011;31493;49.058;12.190;2022-10-28T06:33:07;43.33;;;27.60;;
23676;SDS011;31493;49.058;12.190;2022-10-28T06:35:34;44.22;;;28.50;;
23676;SDS011;31493;49.058;12.190;2022-10-28T06:38:01;41.95;;;27.27;;
23676;SDS011;31493;49.058;12.190;2022-10-28T06:40:28;42.63;;;28.27;;
23676;SDS011;31493;49.058;12.190;2022-10-28T06:42:58;39.38;;;27.42;;
23676;SDS011;31493;49.058;12.190;2022-10-28T06:45:25;42.90;;;27.33;;
23676;SDS011;31493;49.058;12.190;2022-10-28T06:47:55;39.67;;;27.92;;
23676;SDS011;31493;49.058;12.190;2022-10-28T06:50:24;40.72;;;26.80;;
23676;SDS011;31493;49.058;12.190;2022-10-28T06:52:54;47.05;;;28.25;;
23676;SDS011;31493;49.058;12.190;2022-10-28T06:55:21;37.75;;;26.48;;
23676;SDS011;31493;49.058;12.190;2022-10-28T06:57:48;47.95;;;28.35;;
23676;SDS011;31493;49.058;12.190;2022-10-28T07:00:15;45.55;;;29.17;;
23676;SDS011;31493;49.058;12.190;2022-10-28T07:02:43;49.20;;;29.85;;
23676;SDS011;31493;49.058;12.190;2022-10-28T07:05:10;38.63;;;25.55;;
23676;SDS011;31493;49.058;12.190;2022-10-28T07:07:38;40.75;;;27.40;;
23676;SDS011;31493;49.058;12.190;2022-10-28T07:10:05;40.13;;;26.50;;
23676;SDS011;31493;49.058;12.190;2022-10-28T07:12:32;35.38;;;25.20;;
23676;SDS011;31493;49.058;12.190;2022-10-28T07:14:59;41.92;;;27.50;;
23676;SDS011;31493;49.058;12.190;2022-10-28T07:17:26;40.92;;;25.85;;
23676;SDS011;31493;49.058;12.190;2022-10-28T07:19:53;36.67;;;24.77;;
23676;SDS011;31493;49.058;12.190;2022-10-28T07:22:20;38.28;;;25.13;;
23676;SDS011;31493;49.058;12.190;2022-10-28T07:24:49;32.90;;;23.60;;
23676;SDS011;31493;49.058;12.190;2022-10-28T07:27:16;32.30;;;21.73;;
23676;SDS011;31493;49.058;12.190;2022-10-28T07:29:43;31.38;;;21.10;;
23676;SDS011;31493;49.058;12.190;2022-10-28T07:32:10;32.35;;;20.17;;
23676;SDS011;31493;49.058;12.190;2022-10-28T07:34:37;31.13;;;20.05;;
23676;SDS011;31493;49.058;12.190;2022-10-28T07:37:04;29.65;;;19.60;;
23676;SDS011;31493;49.058;12.190;2022-10-28T07:39:31;30.85;;;20.27;;
23676;SDS011;31493;49.058;12.190;2022-10-28T07:41:59;32.33;;;20.85;;
23676;SDS011;31493;49.058;12.190;2022-10-28T07:44:26;29.63;;;19.33;;
23676;SDS011;31493;49.058;12.190;2022-10-28T07:46:53;29.10;;;20.63;;
23676;SDS011;31493;49.058;12.190;2022-10-28T07:49:20;31.85;;;20.55;;
23676;SDS011;31493;49.058;12.190;2022-10-28T07:51:48;33.55;;;19.33;;
23676;SDS011;31493;49.058;12.190;2022-10-28T07:54:15;27.17;;;19.57;;
23676;SDS011;31493;49.058;12.190;2022-10-28T07:56:42;26.58;;;18.05;;
23676;SDS011;31493;49.058;12.190;2022-10-28T07:59:11;26.85;;;18.92;;
23676;SDS011;31493;49.058;12.190;2022-10-28T08:01:38;28.88;;;18.58;;
23676;SDS011;31493;49.058;12.190;2022-10-28T08:04:05;27.15;;;17.13;;
23676;SDS011;31493;49.058;12.190;2022-10-28T08:06:32;27.42;;;16.70;;
23676;SDS011;31493;49.058;12.190;2022-10-28T08:09:01;26.63;;;16.58;;
23676;SDS011;31493;49.058;12.190;2022-10-28T08:11:28;29.50;;;17.00;;
23676;SDS011;31493;49.058;12.190;2022-10-28T08:13:55;28.33;;;16.67;;
23676;SDS011;31493;49.058;12.190;2022-10-28T08:16:24;32.78;;;17.70;;
23676;SDS011;31493;49.058;12.190;2022-10-28T08:18:53;25.80;;;17.45;;
23676;SDS011;31493;49.058;12.190;2022-10-28T08:21:21;24.17;;;17.77;;
23676;SDS011;31493;49.058;12.190;2022-10-28T08:23:48;23.90;;;17.77;;
23676;SDS011;31493;49.058;12.190;2022-10-28T08:26:16;30.77;;;18.65;;
23676;SDS011;31493;49.058;12.190;2022-10-28T08:28:43;37.15;;;18.48;;
23676;SDS011;31493;49.058;12.190;2022-10-28T08:31:10;28.98;;;18.20;;
23676;SDS011;31493;49.058;12.190;2022-10-28T08:33:39;25.60;;;17.20;;
23676;SDS011;31493;49.058;12.190;2022-10-28T08:36:09;24.42;;;16.30;;
23676;SDS011;31493;49.058;12.190;2022-10-28T08:38:37;27.00;;;17.35;;
23676;SDS011;31493;49.058;12.190;2022-10-28T08:41:07;26.38;;;16.45;;
23676;SDS011;31493;49.058;12.190;2022-10-28T08:43:48;27.10;;;17.20;;
23676;SDS011;31493;49.058;12.190;2022-10-28T08:48:56;24.80;;;16.23;;
23676;SDS011;31493;49.058;12.190;2022-10-28T08:51:28;21.95;;;15.20;;
23676;SDS011;31493;49.058;12.190;2022-10-28T08:54:01;22.02;;;14.52;;
23676;SDS011;31493;49.058;12.190;2022-10-28T08:56:38;19.70;;;14.05;;
23676;SDS011;31493;49.058;12.190;2022-10-28T08:59:12;22.48;;;12.05;;
23676;SDS011;31493;49.058;12.190;2022-10-28T09:01:44;25.00;;;12.50;;
23676;SDS011;31493;49.058;12.190;2022-10-28T09:04:18;20.10;;;10.77;;
23676;SDS011;31493;49.058;12.190;2022-10-28T09:06:52;16.48;;;10.05;;
23676;SDS011;31493;49.058;12.190;2022-10-28T09:09:19;17.05;;;9.93;;
23676;SDS011;31493;49.058;12.190;2022-10-28T09:12:00;19.75;;;10.05;;
23676;SDS011;31493;49.058;12.190;2022-10-28T09:14:47;18.73;;;10.05;;
23676;SDS011;31493;49.058;12.190;2022-10-28T09:17:24;19.05;;;9.65;;
23676;SDS011;31493;49.058;12.190;2022-10-28T09:20:00;16.35;;;9.52;;
23676;SDS011;31493;49.058;12.190;2022-10-28T09:22:37;12.75;;;8.90;;
23676;SDS011;31493;49.058;12.190;2022-10-28T09:25:14;16.25;;;8.20;;
23676;SDS011;31493;49.058;12.190;2022-10-28T09:28:00;11.93;;;8.02;;
23676;SDS011;31493;49.058;12.190;2022-10-28T09:30:39;11.57;;;7.60;;
23676;SDS011;31493;49.058;12.190;2022-10-28T09:33:18;15.65;;;7.80;;
23676;SDS011;31493;49.058;12.190;2022-10-28T09:36:08;13.48;;;7.70;;
23676;SDS011;31493;49.058;12.190;2022-10-28T09:38:40;13.65;;;8.75;;
23676;SDS011;31493;49.058;12.190;2022-10-28T09:43:41;12.13;;;7.95;;
23676;SDS011;31493;49.058;12.190;2022-10-28T09:46:14;14.18;;;9.68;;
23676;SDS011;31493;49.058;12.190;2022-10-28T09:51:16;15.80;;;8.73;;
23676;SDS011;31493;49.058;12.190;2022-10-28T09:53:54;16.55;;;8.93;;
23676;SDS011;31493;49.058;12.190;2022-10-28T09:56:22;14.35;;;9.20;;
23676;SDS011;31493;49.058;12.190;2022-10-28T09:58:50;19.63;;;9.40;;
23676;SDS011;31493;49.058;12.190;2022-10-28T10:01:19;19.90;;;8.95;;
23676;SDS011;31493;49.058;12.190;2022-10-28T10:03:46;14.98;;;8.88;;
23676;SDS011;31493;49.058;12.190;2022-10-28T10:06:17;12.48;;;8.80;;
23676;SDS011;31493;49.058;12.190;2022-10-28T10:08:46;12.40;;;8.60;;
23676;SDS011;31493;49.058;12.190;2022-10-28T10:11:16;16.33;;;8.38;;
23676;SDS011;31493;49.058;12.190;2022-10-28T10:13:53;13.38;;;7.85;;
23676;SDS011;31493;49.058;12.190;2022-10-28T10:16:22;14.40;;;7.77;;
23676;SDS011;31493;49.058;12.190;2022-10-28T10:19:05;13.70;;;7.90;;
23676;SDS011;31493;49.058;12.190;2022-10-28T10:21:40;12.55;;;8.00;;
23676;SDS011;31493;49.058;12.190;2022-10-28T10:24:22;13.45;;;7.45;;
23676;SDS011;31493;49.058;12.190;2022-10-28T10:26:50;13.90;;;7.18;;
23676;SDS011;31493;49.058;12.190;2022-10-28T10:29:17;14.40;;;7.30;;
23676;SDS011;31493;49.058;12.190;2022-10-28T10:31:45;13.38;;;7.07;;
23676;SDS011;31493;49.058;12.190;2022-10-28T10:34:19;14.57;;;7.20;;
23676;SDS011;31493;49.058;12.190;2022-10-28T10:36:53;15.63;;;7.25;;
23676;SDS011;31493;49.058;12.190;2022-10-28T10:39:21;10.82;;;7.38;;
23676;SDS011;31493;49.058;12.190;2022-10-28T10:41:52;11.63;;;7.20;;
23676;SDS011;31493;49.058;12.190;2022-10-28T10:44:24;10.45;;;6.53;;
23676;SDS011;31493;49.058;12.190;2022-10-28T10:47:15;11.57;;;6.80;;
23676;SDS011;31493;49.058;12.190;2022-10-28T10:49:45;11.10;;;5.95;;
23676;SDS011;31493;49.058;12.190;2022-10-28T10:52:16;12.90;;;6.78;;
23676;SDS011;31493;49.058;12.190;2022-10-28T10:54:55;14.18;;;6.75;;
23676;SDS011;31493;49.058;12.190;2022-10-28T10:59:52;12.23;;;5.78;;
23676;SDS011;31493;49.058;12.190;2022-10-28T11:04:49;9.95;;;5.90;;
23676;SDS011;31493;49.058;12.190;2022-10-28T11:07:18;11.32;;;5.72;;
23676;SDS011;31493;49.058;12.190;2022-10-28T11:09:46;12.88;;;6.13;;
23676;SDS011;31493;49.058;12.190;2022-10-28T11:12:18;15.68;;;6.03;;
23676;SDS011;31493;49.058;12.190;2022-10-28T11:14:53;11.07;;;5.50;;
23676;SDS011;31493;49.058;12.190;2022-10-28T11:17:22;14.80;;;5.93;;
23676;SDS011;31493;49.058;12.190;2022-10-28T11:19:51;13.93;;;5.95;;
23676;SDS011;31493;49.058;12.190;2022-10-28T11:22:24;12.18;;;6.20;;
23676;SDS011;31493;49.058;12.190;2022-10-28T11:25:07;10.40;;;5.60;;
23676;SDS011;31493;49.058;12.190;2022-10-28T11:27:48;10.82;;;5.68;;
23676;SDS011;31493;49.058;12.190;2022-10-28T11:30:24;10.88;;;5.38;;
23676;SDS011;31493;49.058;12.190;2022-10-28T11:32:59;13.88;;;5.40;;
23676;SDS011;31493;49.058;12.190;2022-10-28T11:35:36;16.50;;;4.90;;
23676;SDS011;31493;49.058;12.190;2022-10-28T11:38:17;9.32;;;4.30;;
23676;SDS011;31493;49.058;12.190;2022-10-28T11:41:09;8.57;;;4.03;;
23676;SDS011;31493;49.058;12.190;2022-10-28T11:43:47;8.90;;;4.20;;
23676;SDS011;31493;49.058;12.190;2022-10-28T11:46:19;8.75;;;3.72;;
23676;SDS011;31493;49.058;12.190;2022-10-28T11:48:59;11.13;;;3.90;;
23676;SDS011;31493;49.058;12.190;2022-10-28T11:51:51;8.60;;;3.92;;
23676;SDS011;31493;49.058;12.190;2022-10-28T11:54:30;7.97;;;3.95;;
23676;SDS011;31493;49.058;12.190;2022-10-28T11:57:10;11.20;;;4.00;;
23676;SDS011;31493;49.058;12.190;2022-10-28T11:59:48;6.07;;;3.22;;
23676;SDS011;31493;49.058;12.190;2022-10-28T12:02:31;14.40;;;3.47;;
23676;SDS011;31493;49.058;12.190;2022-10-28T12:05:13;8.98;;;3.90;;
23676;SDS011;31493;49.058;12.190;2022-10-28T12:07:51;10.18;;;3.63;;
23676;SDS011;31493;49.058;12.190;2022-10-28T12:10:32;6.00;;;3.25;;
23676;SDS011;31493;49.058;12.190;2022-10-28T12:13:06;6.63;;;3.17;;
23676;SDS011;31493;49.058;12.190;2022-10-28T12:15:43;6.68;;;3.38;;
23676;SDS011;31493;49.058;12.190;2022-10-28T12:18:21;6.55;;;3.38;;
23676;SDS011;31493;49.058;12.190;2022-10-28T12:20:55;8.02;;;3.40;;
23676;SDS011;31493;49.058;12.190;2022-10-28T12:23:27;11.43;;;3.95;;
23676;SDS011;31493;49.058;12.190;2022-10-28T12:26:00;13.57;;;4.55;;
23676;SDS011;31493;49.058;12.190;2022-10-28T12:28:32;13.65;;;4.25;;
23676;SDS011;31493;49.058;12.190;2022-10-28T12:31:15;8.60;;;3.88;;
23676;SDS011;31493;49.058;12.190;2022-10-28T12:33:46;7.80;;;4.30;;
23676;SDS011;31493;49.058;12.190;2022-10-28T12:36:18;7.03;;;4.30;;
23676;SDS011;31493;49.058;12.190;2022-10-28T12:38:50;8.20;;;3.95;;
23676;SDS011;31493;49.058;12.190;2022-10-28T12:41:25;9.23;;;4.15;;
23676;SDS011;31493;49.058;12.190;2022-10-28T12:43:56;11.48;;;4.28;;
23676;SDS011;31493;49.058;12.190;2022-10-28T12:46:29;7.00;;;3.80;;
23676;SDS011;31493;49.058;12.190;2022-10-28T12:49:11;10.27;;;3.80;;
23676;SDS011;31493;49.058;12.190;2022-10-28T12:51:44;8.20;;;3.67;;
23676;SDS011;31493;49.058;12.190;2022-10-28T12:54:14;13.70;;;3.70;;
23676;SDS011;31493;49.058;12.190;2022-10-28T12:56:49;9.57;;;3.88;;
23676;SDS011;31493;49.058;12.190;2022-10-28T12:59:21;9.55;;;3.33;;
23676;SDS011;31493;49.058;12.190;2022-10-28T13:01:55;6.47;;;3.05;;
23676;SDS011;31493;49.058;12.190;2022-10-28T13:04:25;8.95;;;3.20;;
23676;SDS011;31493;49.058;12.190;2022-10-28T13:06:58;5.78;;;3.28;;
23676;SDS011;31493;49.058;12.190;2022-10-28T13:09:42;6.80;;;3.17;;
23676;SDS011;31493;49.058;12.190;2022-10-28T13:12:29;7.47;;;3.35;;
23676;SDS011;31493;49.058;12.190;2022-10-28T13:15:13;9.05;;;3.78;;
23676;SDS011;31493;49.058;12.190;2022-10-28T13:18:07;12.35;;;4.05;;
23676;SDS011;31493;49.058;12.190;2022-10-28T13:20:52;15.60;;;4.78;;
23676;SDS011;31493;49.058;12.190;2022-10-28T13:23:33;10.77;;;4.18;;
23676;SDS011;31493;49.058;12.190;2022-10-28T13:26:08;8.70;;;3.58;;
23676;SDS011;31493;49.058;12.190;2022-10-28T13:28:44;8.40;;;3.38;;
23676;SDS011;31493;49.058;12.190;2022-10-28T13:31:13;5.35;;;3.13;;
23676;SDS011;31493;49.058;12.190;2022-10-28T13:33:46;8.10;;;3.50;;
23676;SDS011;31493;49.058;12.190;2022-10-28T13:36:18;6.95;;;3.53;;
23676;SDS011;31493;49.058;12.190;2022-10-28T13:38:51;11.50;;;3.60;;
23676;SDS011;31493;49.058;12.190;2022-10-28T13:41:27;7.00;;;3.40;;
23676;SDS011;31493;49.058;12.190;2022-10-28T13:43:59;7.68;;;3.08;;
23676;SDS011;31493;49.058;12.190;2022-10-28T13:46:58;6.35;;;2.90;;
23676;SDS011;31493;49.058;12.190;2022-10-28T13:49:29;9.32;;;3.10;;
23676;SDS011;31493;49.058;12.190;2022-10-28T13:52:00;4.88;;;2.47;;
23676;SDS011;31493;49.058;12.190;2022-10-28T13:54:30;8.55;;;2.60;;
23676;SDS011;31493;49.058;12.190;2022-10-28T13:57:01;8.85;;;2.80;;
23676;SDS011;31493;49.058;12.190;2022-10-28T13:59:37;8.18;;;2.83;;
23676;SDS011;31493;49.058;12.190;2022-10-28T14:02:17;11.98;;;2.78;;
23676;SDS011;31493;49.058;12.190;2022-10-28T14:04:53;7.60;;;2.50;;
23676;SDS011;31493;49.058;12.190;2022-10-28T14:07:23;7.07;;;2.60;;
23676;SDS011;31493;49.058;12.190;2022-10-28T14:09:54;5.80;;;3.08;;
23676;SDS011;31493;49.058;12.190;2022-10-28T14:12:26;5.20;;;2.30;;
23676;SDS011;31493;49.058;12.190;2022-10-28T14:15:15;6.32;;;2.50;;
23676;SDS011;31493;49.058;12.190;2022-10-28T14:17:45;8.68;;;2.90;;
23676;SDS011;31493;49.058;12.190;2022-10-28T14:20:25;6.45;;;2.70;;
23676;SDS011;31493;49.058;12.190;2022-10-28T14:22:56;6.75;;;3.00;;
23676;SDS011;31493;49.058;12.190;2022-10-28T14:31:41;6.72;;;2.90;;
23676;SDS011;31493;49.058;12.190;2022-10-28T14:37:11;6.15;;;3.03;;
23676;SDS011;31493;49.058;12.190;2022-10-28T14:40:05;8.68;;;3.28;;
23676;SDS011;31493;49.058;12.190;2022-10-28T14:42:50;8.68;;;3.72;;
23676;SDS011;31493;49.058;12.190;2022-10-28T14:45:37;6.70;;;3.58;;
23676;SDS011;31493;49.058;12.190;2022-10-28T14:48:21;7.57;;;3.80;;
23676;SDS011;31493;49.058;12.190;2022-10-28T14:51:12;6.78;;;3.50;;
23676;SDS011;31493;49.058;12.190;2022-10-28T14:53:41;10.82;;;3.92;;
23676;SDS011;31493;49.058;12.190;2022-10-28T14:56:10;7.95;;;3.40;;
23676;SDS011;31493;49.058;12.190;2022-10-28T14:58:44;9.25;;;3.85;;
23676;SDS011;31493;49.058;12.190;2022-10-28T15:01:18;10.07;;;3.78;;
23676;SDS011;31493;49.058;12.190;2022-10-28T15:06:30;9.05;;;4.00;;
23676;SDS011;31493;49.058;12.190;2022-10-28T15:09:14;6.07;;;3.92;;